Time;durP1;ratioP1;P1;durP2;ratioP2;P2;SDS_P1;SDS_P2;PMS_P1;PMS_P2;Temp;Humidity;BMP_temperature;BMP_pressure;BME280_temperature;BME280_humidity;BME280_pressure;Samples;Min_cycle;Max_cycle;Signal;HPM_P1;HPM_P2
2022/06/19 00:03:47;;;;;;;4.60;0.95;;;17.40;1.00;;;;;;6012377;23;20023;-90
2022/06/19 00:38:53;;;;;;;6.32;1.45;;;17.10;1.00;;;;;;6132439;23;20509;-91
2022/06/19 07:11:52;;;;;;;5.43;0.63;;;15.60;1.00;;;;;;6170123;22;1352066;-88
2022/06/19 07:14:19;;;;;;;4.75;0.50;;;15.60;1.00;;;;;;6184736;23;20020;-90
2022/06/19 07:16:46;;;;;;;1.25;0.40;;;15.70;1.00;;;;;;6220963;23;20103;-89
2022/06/19 08:20:20;;;;;;;2.10;0.95;;;16.00;1.00;;;;;;6218147;23;20029;-91
2022/06/19 09:08:55;;;;;;;3.20;0.90;;;16.30;1.00;;;;;;6215867;22;20020;-86
2022/06/19 09:11:45;;;;;;;4.50;1.05;;;16.30;1.00;;;;;;6230259;22;20043;-89
2022/06/19 09:14:30;;;;;;;5.40;0.80;;;16.30;1.00;;;;;;6266818;22;20041;-88
2022/06/19 09:17:40;;;;;;;3.85;0.98;;;16.40;1.00;;;;;;6257706;22;20031;-88
2022/06/19 09:20:37;;;;;;;6.68;1.15;;;16.50;1.00;;;;;;6129601;23;20025;-89
2022/06/19 09:23:21;;;;;;;5.72;1.05;;;16.60;1.00;;;;;;6106633;22;20018;-88
2022/06/19 09:26:01;;;;;;;5.47;1.60;;;16.60;1.00;;;;;;6225121;22;20435;-90
2022/06/19 09:29:13;;;;;;;6.60;1.17;;;16.60;1.00;;;;;;6250325;22;20016;-95
2022/06/19 09:31:48;;;;;;;2.85;0.70;;;16.60;1.00;;;;;;6250182;22;20011;-89
2022/06/19 09:34:24;;;;;;;4.10;1.05;;;16.60;1.00;;;;;;6224908;22;20507;-92
2022/06/19 09:37:13;;;;;;;5.20;0.98;;;16.80;1.00;;;;;;6250478;22;20237;-91
2022/06/19 09:39:49;;;;;;;6.25;1.63;;;16.80;1.00;;;;;;6277858;22;20027;-88
2022/06/19 09:42:27;;;;;;;3.97;0.95;;;16.80;1.00;;;;;;6250652;22;20019;-91
2022/06/19 09:45:09;;;;;;;8.20;1.58;;;16.70;1.00;;;;;;6272001;22;20083;-88
2022/06/19 09:48:02;;;;;;;4.30;1.30;;;16.70;1.00;;;;;;6252026;22;20044;-89
2022/06/19 10:12:47;;;;;;;13.80;1.63;;;17.00;1.00;;;;;;6284881;22;20070;-95
2022/06/19 10:15:29;;;;;;;7.55;2.88;;;17.10;1.00;;;;;;6252153;22;20020;-88
2022/06/19 10:18:11;;;;;;;5.00;0.90;;;16.90;1.00;;;;;;6277186;22;20027;-89
2022/06/19 11:54:09;;;;;;;4.75;1.65;;;18.70;1.00;;;;;;6264668;22;20454;-90
2022/06/19 11:56:51;;;;;;;3.35;0.75;;;18.60;1.00;;;;;;6167038;23;20408;-91
2022/06/19 11:59:56;;;;;;;;;;;;;;;;;;;;;
2022/06/19 13:15:49;;;;;;;1.80;0.90;;;20.00;1.00;;;;;;6231648;22;20091;-91
2022/06/19 13:18:54;;;;;;;5.70;1.65;;;20.00;1.00;;;;;;6190828;23;20016;-92
2022/06/19 13:21:44;;;;;;;6.85;1.42;;;20.10;1.00;;;;;;6164943;23;20020;-87
2022/06/19 13:24:11;;;;;;;5.82;2.30;;;20.00;1.00;;;;;;6216727;23;20027;-90
2022/06/19 13:29:32;;;;;;;6.05;1.33;;;20.10;1.00;;;;;;6190253;23;20055;-87
2022/06/19 13:32:13;;;;;;;4.60;1.02;;;20.20;1.00;;;;;;6189388;23;20021;-86
2022/06/19 13:35:21;;;;;;;6.82;1.42;;;20.20;1.00;;;;;;6165049;23;20102;-88
2022/06/19 13:38:17;;;;;;;9.48;1.27;;;20.40;1.00;;;;;;6187854;23;20021;-86
2022/06/19 13:40:47;;;;;;;6.57;1.33;;;20.10;1.00;;;;;;6189109;23;20103;-87
2022/06/19 13:43:37;;;;;;;10.13;1.27;;;20.30;1.00;;;;;;6164308;23;20030;-87
2022/06/19 13:46:14;;;;;;;7.05;1.98;;;20.40;1.00;;;;;;6190156;23;20452;-87
2022/06/19 13:48:51;;;;;;;7.03;1.25;;;20.50;1.00;;;;;;6164925;23;20032;-88
2022/06/19 13:51:36;;;;;;;4.03;1.48;;;20.50;1.00;;;;;;6164773;23;20020;-87
2022/06/19 13:54:17;;;;;;;3.63;1.25;;;20.20;1.00;;;;;;6188848;23;20074;-88
2022/06/19 21:01:32;;;;;;;2.87;0.93;;;16.60;1.00;;;;;;6242177;22;20951;-89
